createdAt,value
2022-10-18T00:01:17.082Z,35.42
2022-10-18T00:03:18.583Z,41.58
2022-10-18T00:05:20.083Z,36.42
2022-10-18T00:07:21.555Z,40.17
2022-10-18T00:09:23.554Z,35.20
2022-10-18T00:11:25.131Z,39.78
2022-10-18T00:13:26.602Z,34.67
2022-10-18T00:15:28.106Z,42.65
2022-10-18T00:17:29.736Z,41.75
2022-10-18T00:19:31.387Z,35.53
2022-10-18T00:21:33.033Z,37.47
2022-10-18T00:23:35.333Z,38.08
2022-10-18T00:25:36.858Z,40.05
2022-10-18T00:27:38.343Z,39.08
2022-10-18T00:29:39.882Z,36.22
2022-10-18T00:31:43.484Z,35.85
2022-10-18T00:33:46.580Z,36.90
2022-10-18T00:35:48.082Z,41.20
2022-10-18T00:37:49.529Z,41.10
2022-10-18T00:41:57.567Z,37.17
2022-10-18T00:44:11.286Z,30.50
2022-10-18T00:46:12.717Z,35.20
2022-10-18T00:48:15.482Z,33.55
2022-10-18T00:50:17.235Z,32.40
2022-10-18T00:52:23.893Z,38.55
2022-10-18T00:54:28.221Z,37.38
2022-10-18T00:56:30.217Z,39.70
2022-10-18T00:58:32.126Z,33.22
2022-10-18T01:00:34.846Z,37.72
2022-10-18T01:02:37.954Z,34.17
2022-10-18T01:04:39.427Z,33.70
2022-10-18T01:06:50.628Z,34.17
2022-10-18T01:08:52.091Z,37.42
2022-10-18T01:11:05.732Z,33.55
2022-10-18T01:13:52.395Z,37.53
2022-10-18T01:16:01.504Z,37.78
2022-10-18T01:18:24.326Z,36.10
2022-10-18T01:21:03.519Z,32.88
2022-10-18T01:23:23.255Z,32.00
2022-10-18T01:25:37.043Z,30.73
2022-10-18T01:27:47.502Z,34.30
2022-10-18T01:30:07.263Z,25.77
2022-10-18T01:32:37.839Z,26.50
2022-10-18T01:34:41.943Z,25.35
2022-10-18T01:36:48.145Z,25.98
2022-10-18T01:38:53.177Z,23.52
2022-10-18T01:40:56.564Z,26.83
2022-10-18T01:42:58.023Z,24.73
2022-10-18T01:45:01.794Z,23.77
2022-10-18T01:47:04.454Z,24.08
2022-10-18T01:49:05.997Z,23.00
2022-10-18T01:51:07.550Z,27.65
2022-10-18T01:53:33.182Z,22.10
2022-10-18T01:55:45.023Z,19.27
2022-10-18T01:58:13.975Z,21.13
2022-10-18T02:00:32.582Z,18.80
2022-10-18T02:02:41.268Z,18.25
2022-10-18T02:04:54.916Z,22.85
2022-10-18T02:07:06.103Z,13.45
2022-10-18T02:09:18.856Z,19.58
2022-10-18T02:11:20.600Z,24.33
2022-10-18T02:13:25.110Z,24.77
2022-10-18T02:15:32.932Z,19.13
2022-10-18T02:17:34.656Z,16.88
2022-10-18T02:19:40.425Z,12.73
2022-10-18T02:21:43.651Z,11.18
2022-10-18T02:23:47.143Z,19.52
2022-10-18T02:25:48.802Z,17.67
2022-10-18T02:27:51.225Z,12.15
2022-10-18T02:29:53.172Z,17.45
2022-10-18T02:32:08.242Z,13.90
2022-10-18T02:34:24.615Z,11.30
2022-10-18T02:36:36.266Z,10.00
2022-10-18T02:38:39.658Z,16.02
2022-10-18T02:40:41.137Z,13.00
2022-10-18T02:42:48.985Z,16.70
2022-10-18T02:44:50.419Z,27.20
2022-10-18T02:46:52.407Z,20.98
2022-10-18T02:48:53.910Z,15.57
2022-10-18T02:50:55.343Z,18.15
2022-10-18T02:52:56.824Z,17.25
2022-10-18T02:54:58.345Z,12.00
2022-10-18T02:56:59.806Z,11.00
2022-10-18T02:59:01.859Z,12.93
2022-10-18T03:01:03.400Z,9.70
2022-10-18T03:03:04.844Z,9.88
2022-10-18T03:05:06.509Z,7.50
2022-10-18T03:07:08.042Z,11.30
2022-10-18T03:09:09.659Z,10.48
2022-10-18T03:11:11.184Z,10.27
2022-10-18T03:13:12.897Z,12.48
2022-10-18T03:15:14.445Z,7.03
2022-10-18T03:17:16.037Z,9.73
2022-10-18T03:19:17.542Z,19.60
2022-10-18T03:21:18.998Z,13.05
2022-10-18T03:23:20.446Z,13.05
2022-10-18T03:25:22.010Z,13.98
2022-10-18T03:27:23.583Z,11.13
2022-10-18T03:29:25.028Z,15.45
2022-10-18T03:31:26.504Z,8.90
2022-10-18T03:33:28.725Z,10.98
2022-10-18T03:35:30.232Z,8.73
2022-10-18T03:37:31.893Z,6.78
2022-10-18T03:39:33.378Z,12.45
2022-10-18T03:41:34.809Z,9.95
2022-10-18T03:43:36.335Z,12.13
2022-10-18T03:45:37.818Z,9.35
2022-10-18T03:47:39.324Z,8.50
2022-10-18T03:49:40.790Z,12.85
2022-10-18T03:51:42.294Z,7.32
2022-10-18T03:53:43.737Z,11.43
2022-10-18T03:55:45.289Z,13.45
2022-10-18T03:57:46.765Z,8.52
2022-10-18T03:59:48.913Z,13.52
2022-10-18T04:01:50.469Z,6.97
2022-10-18T04:03:51.990Z,9.82
2022-10-18T04:05:53.565Z,11.68
2022-10-18T04:07:55.102Z,15.02
2022-10-18T04:09:56.578Z,12.00
2022-10-18T04:11:58.058Z,8.45
2022-10-18T04:13:59.495Z,17.58
2022-10-18T04:16:00.990Z,15.65
2022-10-18T04:18:02.562Z,26.50
2022-10-18T04:20:04.432Z,12.77
2022-10-18T04:22:05.879Z,12.95
2022-10-18T04:24:07.372Z,14.82
2022-10-18T04:26:09.130Z,16.88
2022-10-18T04:28:10.654Z,17.52
2022-10-18T04:30:12.135Z,19.88
2022-10-18T04:32:13.567Z,7.53
2022-10-18T04:34:15.108Z,10.20
2022-10-18T04:36:16.616Z,13.05
2022-10-18T04:38:18.530Z,11.63
2022-10-18T04:40:20.740Z,16.38
2022-10-18T04:42:25.498Z,14.48
2022-10-18T04:44:27.152Z,14.13
2022-10-18T04:46:28.678Z,9.50
2022-10-18T04:48:30.213Z,11.57
2022-10-18T04:50:31.747Z,10.90
2022-10-18T04:52:33.275Z,13.32
2022-10-18T04:54:34.957Z,12.80
2022-10-18T04:56:36.450Z,12.70
2022-10-18T04:58:38.011Z,14.98
2022-10-18T05:00:40.245Z,17.05
2022-10-18T05:02:41.811Z,22.50
2022-10-18T05:04:43.250Z,15.75
2022-10-18T05:06:44.772Z,16.45
2022-10-18T05:08:46.312Z,14.15
2022-10-18T05:10:47.804Z,12.10
2022-10-18T05:12:49.395Z,15.02
2022-10-18T05:14:50.868Z,22.98
2022-10-18T05:16:52.359Z,17.45
2022-10-18T05:18:54.043Z,10.40
2022-10-18T05:20:55.890Z,13.63
2022-10-18T05:22:58.145Z,11.13
2022-10-18T05:24:59.778Z,10.20
2022-10-18T05:27:01.243Z,11.98
2022-10-18T05:29:03.797Z,12.40
2022-10-18T05:31:06.769Z,14.05
2022-10-18T05:33:09.105Z,11.65
2022-10-18T05:35:10.558Z,10.45
2022-10-18T05:37:12.095Z,8.55
2022-10-18T05:39:13.597Z,9.60
2022-10-18T05:41:15.436Z,8.23
2022-10-18T05:43:17.839Z,8.10
2022-10-18T05:45:19.426Z,10.65
2022-10-18T05:47:20.881Z,15.18
2022-10-18T05:49:22.397Z,15.90
2022-10-18T05:51:24.045Z,7.55
2022-10-18T05:53:36.254Z,9.57
2022-10-18T05:55:38.850Z,10.80
2022-10-18T05:57:40.394Z,10.60
2022-10-18T05:59:41.906Z,11.95
2022-10-18T06:01:43.974Z,9.00
2022-10-18T06:03:45.575Z,11.32
2022-10-18T06:05:47.054Z,10.82
2022-10-18T06:07:48.482Z,7.50
2022-10-18T06:09:49.912Z,8.73
2022-10-18T06:11:51.391Z,10.07
2022-10-18T06:13:53.132Z,9.77
2022-10-18T06:16:00.257Z,7.88
2022-10-18T06:18:01.705Z,11.57
2022-10-18T06:20:04.204Z,10.43
2022-10-18T06:22:05.694Z,9.23
2022-10-18T06:24:07.158Z,9.85
2022-10-18T06:26:11.326Z,11.32
2022-10-18T06:28:12.874Z,6.55
2022-10-18T06:30:15.656Z,9.30
2022-10-18T06:32:17.303Z,10.10
2022-10-18T06:34:18.978Z,9.90
2022-10-18T06:36:24.157Z,11.55
2022-10-18T06:38:26.353Z,10.05
2022-10-18T06:40:27.823Z,6.57
2022-10-18T06:42:29.287Z,8.57
2022-10-18T06:44:31.554Z,10.48
2022-10-18T06:46:33.418Z,6.78
2022-10-18T06:48:36.107Z,9.10
2022-10-18T06:50:37.743Z,9.98
2022-10-18T06:52:39.383Z,6.28
2022-10-18T06:54:40.827Z,8.43
2022-10-18T06:56:42.564Z,9.48
2022-10-18T06:58:44.021Z,10.27
2022-10-18T07:00:46.951Z,11.60
2022-10-18T07:02:48.413Z,5.90
2022-10-18T07:04:50.103Z,7.22
2022-10-18T07:06:54.171Z,7.13
2022-10-18T07:08:56.191Z,9.10
2022-10-18T07:10:57.847Z,8.48
2022-10-18T07:13:13.532Z,11.80
2022-10-18T07:15:22.717Z,12.80
2022-10-18T07:17:24.201Z,13.77
2022-10-18T07:19:25.815Z,6.72
2022-10-18T07:21:27.461Z,11.15
2022-10-18T07:23:28.995Z,8.88
2022-10-18T07:25:31.233Z,7.25
2022-10-18T07:27:37.600Z,8.80
2022-10-18T07:29:39.689Z,10.48
2022-10-18T07:31:41.168Z,9.68
2022-10-18T07:33:45.542Z,8.80
2022-10-18T07:35:47.838Z,10.75
2022-10-18T07:37:49.323Z,9.32
2022-10-18T07:39:50.775Z,8.85
2022-10-18T07:41:52.307Z,8.30
2022-10-18T07:43:53.825Z,8.57
2022-10-18T07:45:57.751Z,8.25
2022-10-18T07:47:59.228Z,10.73
2022-10-18T07:50:00.671Z,7.05
2022-10-18T07:52:02.202Z,8.68
2022-10-18T07:54:03.710Z,8.10
2022-10-18T07:56:15.741Z,9.32
2022-10-18T07:58:17.206Z,6.47
2022-10-18T08:00:18.761Z,9.35
2022-10-18T08:02:20.229Z,4.97
2022-10-18T08:04:21.781Z,11.05
2022-10-18T08:06:23.572Z,6.88
2022-10-18T08:08:25.959Z,10.57
2022-10-18T08:10:27.489Z,4.68
2022-10-18T08:12:28.979Z,5.85
2022-10-18T08:14:30.849Z,8.48
2022-10-18T08:18:39.182Z,7.47
2022-10-18T08:20:46.644Z,8.35
2022-10-18T08:22:50.869Z,7.72
2022-10-18T08:24:52.337Z,8.48
2022-10-18T08:26:53.828Z,7.13
2022-10-18T08:29:10.164Z,7.30
2022-10-18T08:31:18.647Z,5.63
2022-10-18T08:33:20.152Z,6.00
2022-10-18T08:35:21.709Z,4.38
2022-10-18T08:37:23.211Z,10.77
2022-10-18T08:39:24.798Z,9.13
2022-10-18T08:41:38.303Z,7.07
2022-10-18T08:44:04.791Z,7.50
2022-10-18T08:46:12.726Z,7.53
2022-10-18T08:48:21.894Z,10.30
2022-10-18T08:50:30.665Z,6.05
2022-10-18T08:52:34.752Z,10.23
2022-10-18T08:55:14.725Z,6.10
2022-10-18T08:57:18.401Z,8.15
2022-10-18T08:59:23.294Z,7.43
2022-10-18T09:01:45.442Z,7.30
2022-10-18T09:04:21.069Z,5.82
2022-10-18T09:06:50.273Z,9.10
2022-10-18T09:09:16.272Z,8.98
2022-10-18T09:11:30.332Z,9.30
2022-10-18T09:14:02.596Z,7.00
2022-10-18T09:16:08.281Z,6.60
2022-10-18T09:18:31.007Z,5.90
2022-10-18T09:20:47.888Z,7.80
2022-10-18T09:22:53.427Z,7.97
2022-10-18T09:25:06.266Z,7.85
2022-10-18T09:27:16.346Z,9.32
2022-10-18T09:29:48.921Z,9.40
2022-10-18T09:32:14.696Z,9.50
2022-10-18T09:34:30.772Z,7.03
2022-10-18T09:36:38.667Z,8.50
2022-10-18T09:38:49.569Z,12.15
2022-10-18T09:40:58.347Z,5.70
2022-10-18T09:43:08.284Z,6.57
2022-10-18T09:45:30.784Z,6.25
2022-10-18T09:47:41.160Z,8.20
2022-10-18T09:49:48.994Z,7.72
2022-10-18T09:51:53.404Z,8.55
2022-10-18T09:54:17.785Z,11.38
2022-10-18T09:56:26.356Z,8.48
2022-10-18T09:58:37.285Z,8.57
2022-10-18T10:00:46.278Z,6.47
2022-10-18T10:02:47.793Z,7.25
2022-10-18T10:04:50.314Z,6.88
2022-10-18T10:06:53.868Z,11.20
2022-10-18T10:08:59.913Z,6.38
2022-10-18T10:11:01.419Z,16.08
2022-10-18T10:13:16.228Z,8.00
2022-10-18T10:15:20.452Z,5.53
2022-10-18T10:17:26.374Z,7.53
2022-10-18T10:19:34.766Z,4.75
2022-10-18T10:21:40.061Z,9.02
2022-10-18T10:23:50.661Z,9.15
2022-10-18T10:25:54.427Z,7.60
2022-10-18T10:28:01.359Z,7.78
2022-10-18T10:30:06.982Z,10.73
2022-10-18T10:32:13.293Z,7.35
2022-10-18T10:34:14.768Z,9.10
2022-10-18T10:36:21.062Z,9.82
2022-10-18T10:38:24.895Z,12.25
2022-10-18T10:40:28.847Z,13.32
2022-10-18T10:42:32.207Z,7.38
2022-10-18T10:44:36.654Z,7.18
2022-10-18T10:46:38.147Z,5.78
2022-10-18T10:48:46.730Z,11.65
2022-10-18T10:51:10.042Z,8.05
2022-10-18T10:53:28.161Z,9.45
2022-10-18T10:55:35.833Z,9.68
2022-10-18T10:57:38.301Z,6.70
2022-10-18T10:59:48.771Z,10.35
2022-10-18T11:02:18.191Z,10.38
2022-10-18T11:04:30.546Z,6.05
2022-10-18T11:06:38.257Z,8.70
2022-10-18T11:08:42.122Z,8.82
2022-10-18T11:11:16.979Z,7.53
2022-10-18T11:13:41.677Z,10.85
2022-10-18T11:15:50.160Z,8.25
2022-10-18T11:17:57.581Z,7.47
2022-10-18T11:20:09.843Z,16.75
2022-10-18T11:22:17.042Z,9.48
2022-10-18T11:24:18.701Z,6.25
2022-10-18T11:26:48.883Z,8.73
2022-10-18T11:29:26.155Z,9.38
2022-10-18T11:31:35.886Z,8.40
2022-10-18T11:34:17.970Z,7.57
2022-10-18T11:36:55.007Z,6.30
2022-10-18T11:39:15.045Z,9.82
2022-10-18T11:41:24.942Z,9.05
2022-10-18T11:44:01.305Z,10.10
2022-10-18T11:46:39.019Z,11.52
2022-10-18T11:49:00.056Z,9.00
2022-10-18T11:51:29.741Z,14.57
2022-10-18T11:54:20.039Z,9.90
2022-10-18T11:56:36.870Z,10.18
2022-10-18T11:59:00.064Z,7.50
2022-10-18T12:01:12.913Z,10.30
2022-10-18T12:03:23.098Z,12.95
2022-10-18T12:05:25.473Z,14.70
2022-10-18T12:07:32.577Z,12.45
2022-10-18T12:09:41.346Z,14.25
2022-10-18T12:11:53.554Z,8.23
2022-10-18T12:14:08.067Z,8.85
2022-10-18T12:16:11.143Z,9.82
2022-10-18T12:18:21.767Z,9.65
2022-10-18T12:20:36.354Z,11.90
2022-10-18T12:22:47.727Z,12.43
2022-10-18T12:24:49.288Z,11.55
2022-10-18T12:26:53.997Z,13.35
2022-10-18T12:29:34.087Z,10.23
2022-10-18T12:31:47.798Z,13.57
2022-10-18T12:33:54.214Z,9.13
2022-10-18T12:36:10.832Z,13.48
2022-10-18T12:38:16.263Z,17.25
2022-10-18T12:40:23.291Z,25.40
2022-10-18T12:42:30.973Z,26.23
2022-10-18T12:44:34.931Z,26.38
2022-10-18T12:46:45.436Z,11.10
2022-10-18T12:49:02.479Z,11.90
2022-10-18T12:51:13.346Z,7.97
2022-10-18T12:53:26.566Z,10.55
2022-10-18T12:55:36.808Z,10.88
2022-10-18T12:57:53.722Z,11.35
2022-10-18T12:59:55.200Z,9.32
2022-10-18T13:01:59.878Z,9.50
2022-10-18T13:04:01.745Z,9.18
2022-10-18T13:06:06.623Z,7.53
2022-10-18T13:08:39.874Z,9.15
2022-10-18T13:10:41.891Z,9.13
2022-10-18T13:13:19.202Z,8.57
2022-10-18T13:15:49.101Z,11.68
2022-10-18T13:18:29.204Z,9.40
2022-10-18T13:20:56.484Z,14.95
2022-10-18T13:23:37.816Z,9.02
2022-10-18T13:26:04.925Z,11.00
2022-10-18T13:28:37.106Z,10.32
2022-10-18T13:30:47.342Z,15.98
2022-10-18T13:33:44.660Z,13.80
2022-10-18T13:36:05.930Z,16.33
2022-10-18T13:38:45.869Z,16.23
2022-10-18T13:43:39.755Z,36.47
2022-10-18T13:45:41.202Z,30.90
2022-10-18T13:47:42.733Z,35.10
2022-10-18T13:50:16.642Z,21.60
2022-10-18T13:52:46.973Z,13.63
2022-10-18T13:55:00.731Z,16.60
2022-10-18T13:57:26.133Z,12.30
2022-10-18T14:00:04.780Z,13.27
2022-10-18T14:02:50.340Z,9.40
2022-10-18T14:05:24.751Z,11.07
2022-10-18T14:07:27.836Z,13.52
2022-10-18T14:09:52.431Z,14.45
2022-10-18T14:12:11.507Z,14.02
2022-10-18T14:14:34.412Z,24.02
2022-10-18T14:17:15.390Z,24.80
2022-10-18T14:19:25.303Z,25.70
2022-10-18T14:21:34.970Z,28.58
2022-10-18T14:23:41.651Z,21.17
2022-10-18T14:25:43.674Z,27.77
2022-10-18T14:27:45.201Z,26.88
2022-10-18T14:29:48.582Z,21.15
2022-10-18T14:31:53.402Z,13.35
2022-10-18T14:33:58.380Z,9.27
2022-10-18T14:36:09.094Z,15.13
2022-10-18T14:38:14.095Z,14.57
2022-10-18T14:40:42.012Z,16.15
2022-10-18T14:42:48.787Z,13.80
2022-10-18T14:44:54.256Z,16.50
2022-10-18T14:47:14.601Z,12.63
2022-10-18T14:49:17.147Z,10.57
2022-10-18T14:51:18.844Z,11.35
2022-10-18T14:53:25.190Z,15.35
2022-10-18T14:55:33.114Z,9.90
2022-10-18T14:57:36.911Z,15.23
2022-10-18T14:59:51.881Z,12.55
2022-10-18T15:02:11.850Z,9.55
2022-10-18T15:06:19.972Z,11.73
2022-10-18T15:08:23.417Z,21.13
2022-10-18T15:10:30.865Z,19.00
2022-10-18T15:12:40.931Z,23.92
2022-10-18T15:14:43.606Z,23.55
2022-10-18T15:16:46.799Z,25.92
2022-10-18T15:19:24.831Z,18.98
2022-10-18T15:21:26.550Z,19.45
2022-10-18T15:23:31.363Z,18.38
2022-10-18T15:25:34.525Z,19.27
2022-10-18T15:27:38.982Z,19.45
2022-10-18T15:29:43.461Z,18.90
2022-10-18T15:31:45.547Z,52.33
2022-10-18T15:33:47.019Z,59.20
2022-10-18T15:35:49.000Z,50.60
2022-10-18T15:37:50.832Z,49.88
2022-10-18T15:40:18.523Z,37.67
2022-10-18T15:42:37.757Z,36.80
2022-10-18T15:44:53.490Z,50.13
2022-10-18T15:47:09.100Z,56.33
2022-10-18T15:49:45.700Z,49.20
2022-10-18T15:51:48.681Z,55.47
2022-10-18T15:53:51.640Z,42.33
2022-10-18T15:56:12.910Z,42.28
2022-10-18T15:58:39.976Z,45.50
2022-10-18T16:00:43.696Z,79.57
2022-10-18T16:02:45.828Z,127.32
2022-10-18T16:04:47.990Z,115.00
2022-10-18T16:06:50.347Z,105.60
2022-10-18T16:08:53.074Z,84.60
2022-10-18T16:10:54.651Z,85.00
2022-10-18T16:15:02.743Z,123.38
2022-10-18T16:17:06.304Z,113.03
2022-10-18T16:19:08.371Z,90.95
2022-10-18T16:21:16.917Z,99.90
2022-10-18T16:23:24.838Z,153.77
2022-10-18T16:25:26.434Z,96.72
2022-10-18T16:27:28.025Z,137.07
2022-10-18T16:29:32.985Z,244.30
2022-10-18T16:31:34.956Z,97.53
2022-10-18T16:33:36.983Z,154.60
2022-10-18T16:35:38.532Z,207.55
2022-10-18T16:37:40.083Z,172.63
2022-10-18T16:39:41.942Z,78.97
2022-10-18T16:41:44.000Z,139.73
2022-10-18T16:43:47.509Z,63.17
2022-10-18T16:45:51.370Z,69.07
2022-10-18T16:47:52.947Z,174.57
2022-10-18T16:49:54.508Z,173.68
2022-10-18T16:51:56.183Z,61.50
2022-10-18T16:53:57.751Z,121.68
2022-10-18T16:56:00.682Z,55.17
2022-10-18T16:58:02.345Z,67.57
2022-10-18T17:00:04.298Z,59.15
2022-10-18T17:02:09.242Z,32.95
2022-10-18T17:04:10.805Z,144.60
2022-10-18T17:06:16.666Z,37.47
2022-10-18T17:08:26.831Z,102.80
2022-10-18T17:10:28.443Z,40.58
2022-10-18T17:12:30.198Z,64.28
2022-10-18T17:14:33.319Z,35.17
2022-10-18T17:16:36.875Z,23.30
2022-10-18T17:18:38.397Z,35.33
2022-10-18T17:20:40.929Z,29.05
2022-10-18T17:22:42.454Z,35.80
2022-10-18T17:24:43.901Z,22.02
2022-10-18T17:26:45.359Z,21.70
2022-10-18T17:28:50.856Z,25.13
2022-10-18T17:30:52.392Z,25.13
2022-10-18T17:32:55.459Z,31.55
2022-10-18T17:34:57.006Z,25.25
2022-10-18T17:36:58.613Z,17.90
2022-10-18T17:39:00.412Z,24.15
2022-10-18T17:41:09.964Z,21.23
2022-10-18T17:43:13.485Z,37.42
2022-10-18T17:45:15.160Z,22.42
2022-10-18T17:47:16.701Z,18.50
2022-10-18T17:49:18.401Z,20.52
2022-10-18T17:51:20.126Z,22.42
2022-10-18T17:53:25.255Z,26.13
2022-10-18T17:55:27.680Z,30.65
2022-10-18T17:57:29.318Z,24.10
2022-10-18T17:59:30.882Z,27.10
2022-10-18T18:01:32.607Z,30.75
2022-10-18T18:03:34.201Z,21.77
2022-10-18T18:05:35.802Z,31.02
2022-10-18T18:07:37.305Z,19.60
2022-10-18T18:09:38.930Z,16.73
2022-10-18T18:11:43.541Z,24.17
2022-10-18T18:13:45.498Z,24.45
2022-10-18T18:15:47.050Z,28.33
2022-10-18T18:17:58.618Z,22.23
2022-10-18T18:20:00.380Z,28.58
2022-10-18T18:22:02.405Z,29.23
2022-10-18T18:24:04.473Z,26.25
2022-10-18T18:26:06.471Z,31.23
2022-10-18T18:28:07.979Z,5.88
2022-10-18T18:30:09.936Z,9.30
2022-10-18T18:32:11.621Z,22.20
2022-10-18T18:34:13.289Z,6.32
2022-10-18T18:36:14.897Z,7.63
2022-10-18T18:38:16.520Z,16.25
2022-10-18T18:40:18.176Z,19.02
2022-10-18T18:42:19.730Z,14.18
2022-10-18T18:44:22.454Z,5.93
2022-10-18T18:46:25.657Z,13.43
2022-10-18T18:48:28.152Z,8.43
2022-10-18T18:50:31.901Z,17.35
2022-10-18T18:52:33.583Z,11.57
2022-10-18T18:54:35.437Z,7.10
2022-10-18T18:56:37.442Z,32.33
2022-10-18T18:58:39.510Z,18.77
2022-10-18T19:00:44.449Z,16.90
2022-10-18T19:02:46.336Z,19.98
2022-10-18T19:04:47.978Z,12.05
2022-10-18T19:06:49.532Z,8.88
2022-10-18T19:08:54.276Z,10.00
2022-10-18T19:10:55.847Z,6.32
2022-10-18T19:12:57.803Z,10.52
2022-10-18T19:14:59.409Z,8.98
2022-10-18T19:17:02.555Z,6.45
2022-10-18T19:19:06.174Z,9.20
2022-10-18T19:21:07.731Z,13.48
2022-10-18T19:23:09.306Z,15.07
2022-10-18T19:25:11.356Z,36.08
2022-10-18T19:27:12.972Z,17.23
2022-10-18T19:29:29.465Z,46.55
2022-10-18T19:31:30.994Z,18.95
2022-10-18T19:33:47.831Z,15.40
2022-10-18T19:35:50.195Z,8.80
2022-10-18T19:37:51.657Z,9.07
2022-10-18T19:39:53.112Z,12.35
2022-10-18T19:41:57.441Z,9.63
2022-10-18T19:43:58.952Z,9.38
2022-10-18T19:46:04.766Z,10.93
2022-10-18T19:48:06.660Z,8.95
2022-10-18T19:50:08.472Z,10.52
2022-10-18T19:52:12.253Z,9.77
2022-10-18T19:54:15.426Z,9.43
2022-10-18T19:56:20.272Z,13.70
2022-10-18T19:58:21.740Z,8.80
2022-10-18T20:00:23.574Z,6.28
2022-10-18T20:02:25.071Z,10.77
2022-10-18T20:04:26.598Z,6.82
2022-10-18T20:06:28.088Z,6.90
2022-10-18T20:08:31.857Z,5.60
2022-10-18T20:10:33.415Z,5.65
2022-10-18T20:12:36.354Z,6.68
2022-10-18T20:14:37.895Z,4.13
2022-10-18T20:16:39.423Z,5.68
2022-10-18T20:18:43.182Z,6.40
2022-10-18T20:20:48.016Z,6.85
2022-10-18T20:22:49.996Z,7.93
2022-10-18T20:24:51.462Z,6.72
2022-10-18T20:29:00.003Z,7.55
2022-10-18T20:31:02.968Z,7.53
2022-10-18T20:33:04.931Z,9.57
2022-10-18T20:35:06.704Z,9.60
2022-10-18T20:37:08.136Z,8.57
2022-10-18T20:39:09.836Z,10.50
2022-10-18T20:41:20.152Z,9.75
2022-10-18T20:43:21.572Z,10.30
2022-10-18T20:45:23.447Z,10.35
2022-10-18T20:47:24.927Z,7.63
2022-10-18T20:49:26.449Z,12.25
2022-10-18T20:51:28.201Z,9.73
2022-10-18T20:53:29.763Z,11.10
2022-10-18T20:55:31.275Z,11.32
2022-10-18T20:57:35.733Z,12.25
2022-10-18T20:59:38.171Z,10.43
2022-10-18T21:01:39.826Z,10.25
2022-10-18T21:03:43.652Z,10.07
2022-10-18T21:05:45.120Z,9.18
2022-10-18T21:07:46.581Z,8.73
2022-10-18T21:09:48.062Z,12.40
2022-10-18T21:11:51.542Z,10.38
2022-10-18T21:14:02.558Z,17.80
2022-10-18T21:16:05.544Z,8.98
2022-10-18T21:18:07.010Z,10.75
2022-10-18T21:20:09.273Z,12.20
2022-10-18T21:22:10.726Z,9.40
2022-10-18T21:24:13.437Z,11.30
2022-10-18T21:26:17.634Z,15.95
2022-10-18T21:28:19.096Z,10.10
2022-10-18T21:30:20.561Z,9.77
2022-10-18T21:32:22.077Z,12.18
2022-10-18T21:34:23.605Z,10.23
2022-10-18T21:36:26.827Z,9.90
2022-10-18T21:38:28.276Z,7.90
2022-10-18T21:40:30.128Z,13.73
2022-10-18T21:42:31.761Z,12.55
2022-10-18T21:44:33.448Z,14.48
2022-10-18T21:46:35.788Z,12.40
2022-10-18T21:48:38.710Z,16.05
2022-10-18T21:50:40.188Z,14.75
2022-10-18T21:52:41.802Z,18.35
2022-10-18T21:54:43.287Z,18.95
2022-10-18T21:56:44.799Z,17.33
2022-10-18T21:58:46.856Z,20.17
2022-10-18T22:00:49.314Z,18.73
2022-10-18T22:03:07.474Z,19.08
2022-10-18T22:05:11.420Z,18.05
2022-10-18T22:07:13.743Z,20.33
2022-10-18T22:09:15.813Z,16.23
2022-10-18T22:11:18.975Z,16.92
2022-10-18T22:13:20.759Z,16.90
2022-10-18T22:15:22.445Z,16.08
2022-10-18T22:17:24.401Z,16.00
2022-10-18T22:19:26.061Z,19.50
2022-10-18T22:21:28.099Z,29.60
2022-10-18T22:23:38.546Z,28.92
2022-10-18T22:25:40.123Z,19.80
2022-10-18T22:27:41.859Z,23.30
2022-10-18T22:29:43.331Z,22.35
2022-10-18T22:31:47.483Z,25.23
2022-10-18T22:33:54.545Z,21.02
2022-10-18T22:35:56.224Z,20.45
2022-10-18T22:37:57.680Z,19.58
2022-10-18T22:39:59.139Z,25.63
2022-10-18T22:42:00.597Z,22.13
2022-10-18T22:44:03.657Z,22.90
2022-10-18T22:46:08.402Z,26.15
2022-10-18T22:48:09.852Z,25.33
2022-10-18T22:50:11.348Z,30.00
2022-10-18T22:52:12.849Z,35.72
2022-10-18T22:54:14.431Z,35.30
2022-10-18T22:56:18.426Z,33.28
2022-10-18T22:58:20.384Z,35.08
2022-10-18T23:00:21.943Z,31.75
2022-10-18T23:02:23.508Z,31.48
2022-10-18T23:04:24.993Z,31.63
2022-10-18T23:06:32.292Z,30.83
2022-10-18T23:08:33.805Z,36.10
2022-10-18T23:10:37.332Z,36.65
2022-10-18T23:12:38.801Z,30.85
2022-10-18T23:14:40.332Z,37.53
2022-10-18T23:16:41.851Z,30.38
2022-10-18T23:18:43.862Z,30.88
2022-10-18T23:20:45.700Z,32.75
2022-10-18T23:22:47.423Z,31.90
2022-10-18T23:24:48.894Z,29.95
2022-10-18T23:26:50.363Z,31.10
2022-10-18T23:28:53.163Z,29.30
2022-10-18T23:30:54.752Z,29.60
2022-10-18T23:32:56.212Z,29.50
2022-10-18T23:34:57.697Z,28.60
2022-10-18T23:36:59.155Z,29.77
2022-10-18T23:39:00.759Z,29.48
2022-10-18T23:41:02.787Z,29.65
2022-10-18T23:43:04.227Z,24.63
2022-10-18T23:45:06.360Z,24.77
2022-10-18T23:47:07.855Z,27.08
2022-10-18T23:49:09.331Z,24.83
2022-10-18T23:51:10.906Z,27.00
2022-10-18T23:53:12.428Z,26.67
2022-10-18T23:55:14.038Z,32.65
2022-10-18T23:57:15.557Z,32.90
2022-10-18T23:59:17.093Z,30.85
